createdAt,value
2017-06-08T00:01:03.177Z,90.30
2017-06-08T00:03:34.673Z,90.50
2017-06-08T00:06:06.201Z,90.60
2017-06-08T00:08:37.684Z,90.50
2017-06-08T00:11:09.206Z,90.50
2017-06-08T00:13:41.457Z,90.50
2017-06-08T00:16:12.957Z,90.40
2017-06-08T00:18:44.560Z,90.20
2017-06-08T00:21:16.085Z,90.20
2017-06-08T00:23:47.649Z,90.20
2017-06-08T00:26:19.162Z,89.50
2017-06-08T00:28:50.757Z,90.00
2017-06-08T00:31:22.270Z,90.40
2017-06-08T00:33:53.820Z,90.30
2017-06-08T00:36:25.301Z,90.30
2017-06-08T00:38:56.941Z,90.00
2017-06-08T00:41:28.457Z,89.50
2017-06-08T00:43:59.972Z,89.70
2017-06-08T00:46:31.486Z,89.30
2017-06-08T00:49:03.081Z,89.20
2017-06-08T00:51:34.598Z,88.80
2017-06-08T00:54:06.156Z,88.00
2017-06-08T00:56:37.673Z,88.20
2017-06-08T00:59:10.048Z,87.70
2017-06-08T01:01:42.257Z,87.70
2017-06-08T01:04:13.782Z,87.60
2017-06-08T01:06:46.039Z,87.80
2017-06-08T01:09:17.554Z,87.70
2017-06-08T01:11:49.101Z,88.00
2017-06-08T01:14:20.606Z,86.90
2017-06-08T01:16:52.389Z,87.30
2017-06-08T01:19:23.885Z,87.20
2017-06-08T01:21:55.429Z,87.40
2017-06-08T01:24:26.969Z,87.60
2017-06-08T01:26:58.497Z,87.00
2017-06-08T01:29:30.056Z,85.80
2017-06-08T01:32:01.552Z,87.50
2017-06-08T01:34:33.073Z,87.40
2017-06-08T01:37:04.597Z,86.60
2017-06-08T01:39:36.181Z,85.70
2017-06-08T01:42:07.689Z,86.30
2017-06-08T01:44:40.227Z,88.00
2017-06-08T01:47:11.761Z,87.90
2017-06-08T01:49:43.329Z,88.20
2017-06-08T01:52:14.854Z,88.30
2017-06-08T01:54:46.399Z,88.70
2017-06-08T01:57:17.930Z,87.70
2017-06-08T01:59:49.601Z,87.50
2017-06-08T02:02:21.146Z,87.50
2017-06-08T02:04:52.688Z,87.80
2017-06-08T02:07:24.221Z,86.90
2017-06-08T02:09:56.509Z,86.00
2017-06-08T02:12:28.014Z,86.30
2017-06-08T02:14:59.597Z,85.60
2017-06-08T02:17:31.064Z,85.60
2017-06-08T02:20:02.900Z,85.60
2017-06-08T02:22:34.433Z,85.20
2017-06-08T02:25:06.089Z,85.80
2017-06-08T02:27:37.596Z,87.00
2017-06-08T02:30:09.174Z,86.50
2017-06-08T02:32:40.702Z,87.30
2017-06-08T02:35:12.240Z,87.90
2017-06-08T02:37:43.769Z,88.40
2017-06-08T02:40:15.253Z,88.00
2017-06-08T02:42:47.089Z,87.80
2017-06-08T02:45:18.577Z,86.90
2017-06-08T02:47:50.092Z,85.70
2017-06-08T02:50:21.629Z,85.00
2017-06-08T02:52:53.173Z,85.50
2017-06-08T02:55:24.678Z,85.30
2017-06-08T02:57:56.217Z,84.80
2017-06-08T03:00:28.491Z,85.10
2017-06-08T03:02:54.937Z,85.10
2017-06-08T03:05:26.480Z,84.30
2017-06-08T03:07:57.988Z,84.00
2017-06-08T03:10:29.530Z,84.40
2017-06-08T03:13:01.813Z,84.90
2017-06-08T03:15:33.365Z,84.90
2017-06-08T03:18:04.926Z,84.70
2017-06-08T03:20:36.478Z,84.40
2017-06-08T03:23:07.957Z,84.20
2017-06-08T03:25:40.225Z,85.90
2017-06-08T03:28:11.752Z,85.00
2017-06-08T03:30:43.373Z,86.20
2017-06-08T03:33:14.860Z,86.30
2017-06-08T03:35:46.365Z,85.70
2017-06-08T03:38:17.929Z,86.20
2017-06-08T03:40:49.432Z,85.30
2017-06-08T03:43:21.005Z,84.90
2017-06-08T03:45:52.486Z,84.80
2017-06-08T03:48:24.054Z,85.60
2017-06-08T03:50:55.549Z,85.10
2017-06-08T03:53:27.818Z,86.00
2017-06-08T03:55:59.317Z,85.90
2017-06-08T03:58:30.849Z,86.70
2017-06-08T04:01:02.384Z,85.90
2017-06-08T04:03:34.613Z,85.40
2017-06-08T04:06:06.126Z,85.40
2017-06-08T04:08:37.646Z,85.00
2017-06-08T04:11:09.929Z,85.50
2017-06-08T04:13:41.401Z,85.40
2017-06-08T04:16:12.945Z,85.50
2017-06-08T04:18:44.460Z,85.10
2017-06-08T04:21:16.006Z,85.10
2017-06-08T04:23:47.481Z,84.70
2017-06-08T04:26:19.757Z,84.20
2017-06-08T04:28:52.013Z,84.50
2017-06-08T04:31:18.453Z,84.40
2017-06-08T04:33:50.768Z,86.40
2017-06-08T04:36:22.242Z,86.30
2017-06-08T04:38:53.765Z,86.30
2017-06-08T04:41:25.287Z,85.00
2017-06-08T04:43:56.870Z,84.60
2017-06-08T04:46:28.433Z,84.20
2017-06-08T04:48:59.953Z,84.40
2017-06-08T04:51:31.863Z,84.50
2017-06-08T04:54:03.555Z,84.10
2017-06-08T04:56:35.412Z,84.70
2017-06-08T04:59:06.901Z,85.50
2017-06-08T05:01:38.504Z,85.70
2017-06-08T05:04:10.013Z,85.90
2017-06-08T05:06:51.610Z,86.10
2017-06-08T05:09:23.121Z,86.40
2017-06-08T05:11:55.401Z,85.20
2017-06-08T05:14:41.796Z,85.20
2017-06-08T05:17:13.313Z,85.50
2017-06-08T05:19:44.849Z,86.50
2017-06-08T05:22:16.358Z,87.00
2017-06-08T05:24:47.934Z,86.80
2017-06-08T05:27:19.428Z,86.20
2017-06-08T05:29:50.946Z,87.30
2017-06-08T05:32:22.432Z,87.80
2017-06-08T05:34:53.937Z,87.00
2017-06-08T05:37:25.413Z,88.10
2017-06-08T05:39:56.950Z,89.40
2017-06-08T05:42:28.473Z,89.10
2017-06-08T05:45:00.009Z,89.80
2017-06-08T05:47:31.509Z,90.10
2017-06-08T05:50:03.062Z,89.60
2017-06-08T05:52:41.461Z,89.00
2017-06-08T05:55:12.981Z,89.90
2017-06-08T05:57:45.198Z,89.20
2017-06-08T06:00:16.758Z,88.70
2017-06-08T06:02:48.311Z,88.30
2017-06-08T06:05:19.792Z,87.90
2017-06-08T06:07:51.324Z,86.00
2017-06-08T06:10:22.838Z,86.00
2017-06-08T06:12:54.441Z,87.70
2017-06-08T06:15:25.954Z,86.90
2017-06-08T06:17:57.456Z,87.70
2017-06-08T06:20:29.011Z,87.80
2017-06-08T06:23:00.534Z,87.30
2017-06-08T06:25:32.054Z,87.50
2017-06-08T06:28:03.537Z,86.20
2017-06-08T06:30:35.106Z,87.30
2017-06-08T06:33:06.781Z,87.30
2017-06-08T06:35:38.293Z,87.20
2017-06-08T06:38:09.924Z,86.10
2017-06-08T06:40:41.441Z,85.50
2017-06-08T06:43:13.043Z,86.00
2017-06-08T06:45:44.516Z,86.00
2017-06-08T06:48:16.301Z,83.60
2017-06-08T06:50:47.818Z,86.80
2017-06-08T06:53:19.423Z,85.30
2017-06-08T06:55:57.870Z,84.30
2017-06-08T06:58:29.410Z,83.90
2017-06-08T07:01:00.925Z,85.20
2017-06-08T07:03:32.504Z,84.70
2017-06-08T07:06:03.965Z,83.20
2017-06-08T07:08:35.502Z,83.80
2017-06-08T07:11:07.042Z,83.30
2017-06-08T07:13:38.593Z,82.90
2017-06-08T07:16:10.133Z,83.00
2017-06-08T07:18:41.649Z,83.30
2017-06-08T07:21:13.225Z,82.90
2017-06-08T07:23:44.733Z,82.10
2017-06-08T07:26:16.330Z,82.40
2017-06-08T07:28:47.845Z,82.90
2017-06-08T07:31:19.349Z,82.60
2017-06-08T07:33:51.666Z,80.20
2017-06-08T07:36:23.486Z,80.20
2017-06-08T07:38:55.122Z,78.20
2017-06-08T07:41:26.653Z,78.00
2017-06-08T07:44:13.045Z,79.00
2017-06-08T07:46:44.613Z,79.20
2017-06-08T07:49:16.136Z,79.80
2017-06-08T07:51:47.641Z,78.00
2017-06-08T07:54:19.166Z,76.00
2017-06-08T07:56:50.706Z,73.90
2017-06-08T07:59:22.218Z,74.40
2017-06-08T08:02:05.909Z,75.50
2017-06-08T08:04:37.469Z,76.80
2017-06-08T08:07:08.973Z,74.70
2017-06-08T08:09:41.250Z,73.50
2017-06-08T08:12:12.756Z,73.40
2017-06-08T08:14:44.270Z,73.20
2017-06-08T08:17:16.617Z,68.80
2017-06-08T08:19:48.105Z,67.70
2017-06-08T08:22:19.606Z,68.10
2017-06-08T08:24:51.072Z,69.00
2017-06-08T08:27:23.378Z,70.70
2017-06-08T08:29:54.877Z,70.70
2017-06-08T08:32:26.430Z,71.50
2017-06-08T08:34:58.030Z,70.90
2017-06-08T08:37:29.591Z,65.70
2017-06-08T08:40:01.134Z,62.10
2017-06-08T08:42:32.678Z,63.60
2017-06-08T08:45:04.165Z,61.00
2017-06-08T08:47:35.718Z,62.10
2017-06-08T08:50:07.243Z,60.30
2017-06-08T08:52:38.801Z,59.10
2017-06-08T08:55:10.303Z,59.00
2017-06-08T08:57:41.821Z,58.10
2017-06-08T09:00:13.365Z,59.50
2017-06-08T09:02:44.861Z,57.50
2017-06-08T09:05:16.413Z,59.10
2017-06-08T09:07:47.909Z,56.60
2017-06-08T09:10:19.432Z,62.70
2017-06-08T09:12:51.092Z,59.80
2017-06-08T09:15:22.612Z,55.70
2017-06-08T09:17:54.384Z,58.30
2017-06-08T09:20:25.872Z,57.80
2017-06-08T09:22:58.189Z,55.70
2017-06-08T09:25:29.706Z,55.70
2017-06-08T09:28:01.262Z,55.90
2017-06-08T09:30:32.786Z,56.20
2017-06-08T09:33:04.369Z,56.60
2017-06-08T09:35:35.847Z,54.50
2017-06-08T09:38:07.378Z,56.90
2017-06-08T09:40:39.194Z,55.50
2017-06-08T09:43:10.712Z,55.90
2017-06-08T09:45:42.277Z,54.20
2017-06-08T09:48:13.822Z,51.80
2017-06-08T09:50:45.398Z,54.10
2017-06-08T09:53:16.926Z,52.70
2017-06-08T09:55:48.626Z,53.70
2017-06-08T09:58:20.881Z,52.60
2017-06-08T10:00:52.389Z,52.50
2017-06-08T10:03:23.876Z,51.50
2017-06-08T10:05:55.447Z,51.40
2017-06-08T10:08:26.939Z,50.70
2017-06-08T10:10:58.482Z,49.60
2017-06-08T10:13:25.658Z,49.70
2017-06-08T10:15:57.150Z,49.60
2017-06-08T10:18:29.481Z,50.30
2017-06-08T10:21:01.004Z,50.40
2017-06-08T10:23:32.606Z,48.30
2017-06-08T10:26:04.128Z,49.80
2017-06-08T10:28:35.687Z,49.10
2017-06-08T10:31:07.184Z,45.90
2017-06-08T10:33:38.699Z,46.70
2017-06-08T10:36:10.171Z,44.40
2017-06-08T10:38:41.726Z,45.30
2017-06-08T10:41:13.261Z,45.30
2017-06-08T10:43:44.765Z,45.40
2017-06-08T10:46:16.408Z,44.60
2017-06-08T10:48:48.642Z,42.20
2017-06-08T10:51:20.195Z,42.10
2017-06-08T10:53:51.846Z,40.30
2017-06-08T10:56:23.339Z,42.00
2017-06-08T10:58:55.720Z,43.10
2017-06-08T11:01:27.253Z,43.00
2017-06-08T11:03:59.829Z,47.10
2017-06-08T11:06:31.342Z,47.60
2017-06-08T11:09:02.916Z,42.30
2017-06-08T11:11:34.415Z,46.60
2017-06-08T11:14:05.964Z,38.90
2017-06-08T11:16:37.448Z,42.60
2017-06-08T11:19:09.177Z,42.50
2017-06-08T11:21:40.773Z,42.30
2017-06-08T11:24:12.372Z,38.60
2017-06-08T11:26:44.938Z,41.50
2017-06-08T11:29:16.469Z,41.50
2017-06-08T11:31:48.334Z,43.40
2017-06-08T11:34:19.870Z,40.30
2017-06-08T11:36:51.437Z,43.30
2017-06-08T11:39:23.032Z,40.10
2017-06-08T11:41:54.485Z,40.40
2017-06-08T11:44:26.030Z,41.00
2017-06-08T11:46:58.274Z,43.90
2017-06-08T11:49:29.806Z,43.80
2017-06-08T11:52:01.290Z,40.70
2017-06-08T11:54:33.551Z,42.70
2017-06-08T11:57:05.070Z,42.60
2017-06-08T11:59:36.597Z,40.20
2017-06-08T12:02:08.186Z,40.70
2017-06-08T12:04:39.700Z,42.50
2017-06-08T12:07:11.207Z,42.80
2017-06-08T12:09:42.697Z,42.90
2017-06-08T12:12:21.598Z,42.80
2017-06-08T12:14:53.862Z,44.30
2017-06-08T12:17:26.510Z,43.00
2017-06-08T12:19:58.197Z,42.90
2017-06-08T12:22:43.393Z,40.40
2017-06-08T12:25:14.977Z,40.40
2017-06-08T12:27:46.527Z,40.50
2017-06-08T12:30:18.057Z,37.30
2017-06-08T12:32:49.584Z,40.30
2017-06-08T12:35:21.836Z,37.70
2017-06-08T12:37:53.354Z,37.70
2017-06-08T12:40:24.922Z,43.10
2017-06-08T12:42:56.466Z,40.30
2017-06-08T12:45:27.970Z,39.70
2017-06-08T12:48:00.254Z,39.50
2017-06-08T12:50:31.731Z,39.40
2017-06-08T12:53:03.285Z,39.20
2017-06-08T12:55:34.770Z,36.40
2017-06-08T12:58:06.321Z,35.20
2017-06-08T13:00:37.826Z,34.70
2017-06-08T13:03:09.409Z,36.10
2017-06-08T13:05:40.888Z,32.80
2017-06-08T13:08:12.385Z,33.30
2017-06-08T13:10:43.922Z,29.90
2017-06-08T13:13:15.474Z,33.50
2017-06-08T13:15:47.011Z,32.20
2017-06-08T13:18:18.860Z,34.80
2017-06-08T13:20:57.374Z,30.90
2017-06-08T13:23:28.903Z,31.10
2017-06-08T13:26:00.417Z,30.90
2017-06-08T13:28:31.933Z,30.40
2017-06-08T13:31:03.556Z,29.40
2017-06-08T13:33:35.138Z,30.30
2017-06-08T13:36:06.686Z,30.50
2017-06-08T13:38:38.178Z,33.00
2017-06-08T13:41:09.765Z,29.50
2017-06-08T13:43:41.275Z,30.70
2017-06-08T13:46:12.862Z,28.20
2017-06-08T13:48:44.389Z,28.70
2017-06-08T13:51:15.934Z,29.90
2017-06-08T13:53:47.505Z,29.00
2017-06-08T13:56:19.012Z,27.40
2017-06-08T13:58:50.565Z,27.20
2017-06-08T14:01:22.047Z,26.80
2017-06-08T14:03:54.603Z,26.80
2017-06-08T14:06:26.805Z,27.50
2017-06-08T14:08:58.321Z,27.20
2017-06-08T14:11:29.830Z,27.50
2017-06-08T14:14:01.349Z,29.20
2017-06-08T14:16:33.558Z,31.60
2017-06-08T14:19:05.105Z,31.50
2017-06-08T14:21:36.603Z,28.10
2017-06-08T14:24:08.125Z,28.50
2017-06-08T14:26:39.606Z,28.40
2017-06-08T14:29:11.201Z,29.30
2017-06-08T14:31:43.469Z,30.00
2017-06-08T14:34:14.987Z,28.40
2017-06-08T14:36:47.375Z,29.40
2017-06-08T14:39:18.885Z,29.40
2017-06-08T14:41:50.412Z,28.40
2017-06-08T14:44:21.897Z,28.80
2017-06-08T14:46:53.526Z,29.00
2017-06-08T14:49:25.029Z,29.60
2017-06-08T14:51:57.269Z,29.50
2017-06-08T14:54:28.753Z,29.50
2017-06-08T14:57:00.326Z,28.40
2017-06-08T14:59:31.814Z,30.40
2017-06-08T15:02:03.417Z,27.40
2017-06-08T15:04:34.901Z,28.60
2017-06-08T15:07:06.442Z,29.00
2017-06-08T15:09:38.233Z,29.90
2017-06-08T15:12:09.829Z,28.40
2017-06-08T15:14:41.365Z,27.30
2017-06-08T15:17:12.858Z,27.70
2017-06-08T15:19:44.341Z,28.30
2017-06-08T15:22:15.878Z,31.00
2017-06-08T15:24:47.452Z,31.90
2017-06-08T15:27:18.921Z,30.80
2017-06-08T15:29:50.433Z,29.30
2017-06-08T15:32:21.949Z,29.30
2017-06-08T15:34:53.751Z,29.60
2017-06-08T15:37:25.249Z,29.30
2017-06-08T15:39:56.806Z,32.80
2017-06-08T15:42:29.085Z,30.70
2017-06-08T15:45:00.729Z,30.70
2017-06-08T15:47:32.961Z,30.20
2017-06-08T15:50:04.437Z,30.20
2017-06-08T15:52:35.881Z,28.80
2017-06-08T15:55:07.374Z,28.50
2017-06-08T15:57:38.849Z,31.60
2017-06-08T16:00:10.530Z,31.70
2017-06-08T16:02:42.049Z,31.70
2017-06-08T16:05:13.670Z,33.30
2017-06-08T16:07:52.374Z,31.40
2017-06-08T16:10:23.882Z,31.90
2017-06-08T16:12:55.411Z,32.20
2017-06-08T16:15:26.929Z,33.50
2017-06-08T16:17:58.469Z,33.40
2017-06-08T16:20:29.997Z,35.60
2017-06-08T16:23:01.513Z,33.30
2017-06-08T16:25:33.141Z,33.50
2017-06-08T16:30:43.182Z,34.40
2017-06-08T16:33:14.730Z,33.50
2017-06-08T16:35:46.297Z,33.70
2017-06-08T16:38:17.813Z,34.60
2017-06-08T16:40:49.463Z,34.70
2017-06-08T16:43:21.024Z,34.20
2017-06-08T16:45:52.542Z,35.00
2017-06-08T16:48:24.003Z,34.90
2017-06-08T16:50:56.290Z,34.90
2017-06-08T16:53:27.865Z,34.90
2017-06-08T16:55:59.469Z,34.90
2017-06-08T16:58:30.988Z,35.30
2017-06-08T17:01:02.530Z,35.20
2017-06-08T17:03:34.052Z,36.20
2017-06-08T17:06:05.605Z,38.20
2017-06-08T17:08:37.150Z,35.70
2017-06-08T17:11:08.674Z,34.50
2017-06-08T17:13:41.017Z,35.70
2017-06-08T17:16:12.504Z,35.60
2017-06-08T17:18:44.817Z,37.00
2017-06-08T17:21:16.309Z,36.50
2017-06-08T17:23:47.916Z,36.70
2017-06-08T17:26:19.406Z,36.20
2017-06-08T17:28:51.042Z,37.20
2017-06-08T17:31:22.622Z,39.10
2017-06-08T17:33:54.154Z,40.20
2017-06-08T17:36:25.646Z,38.60
2017-06-08T17:38:58.026Z,39.40
2017-06-08T17:41:30.275Z,38.40
2017-06-08T17:44:01.955Z,38.40
2017-06-08T17:46:33.465Z,40.40
2017-06-08T17:49:05.002Z,39.90
2017-06-08T17:51:36.496Z,38.90
2017-06-08T17:54:08.860Z,39.20
2017-06-08T17:56:40.337Z,39.70
2017-06-08T17:59:12.597Z,42.20
2017-06-08T18:01:51.770Z,42.80
2017-06-08T18:04:23.694Z,42.80
2017-06-08T18:06:55.279Z,42.10
2017-06-08T18:09:26.817Z,44.00
2017-06-08T18:11:58.300Z,43.10
2017-06-08T18:14:29.854Z,42.20
2017-06-08T18:17:01.340Z,43.00
2017-06-08T18:19:32.875Z,44.00
2017-06-08T18:22:04.430Z,43.70
2017-06-08T18:24:35.967Z,43.50
2017-06-08T18:27:07.538Z,43.80
2017-06-08T18:29:39.078Z,43.80
2017-06-08T18:32:10.631Z,44.70
2017-06-08T18:34:42.166Z,45.00
2017-06-08T18:37:13.725Z,45.50
2017-06-08T18:39:40.158Z,47.70
2017-06-08T18:42:11.630Z,49.10
2017-06-08T18:44:43.241Z,49.80
2017-06-08T18:47:14.750Z,51.00
2017-06-08T18:49:46.301Z,51.90
2017-06-08T18:52:17.761Z,52.40
2017-06-08T18:54:49.605Z,52.90
2017-06-08T18:57:21.128Z,53.90
2017-06-08T18:59:52.829Z,54.90
2017-06-08T19:02:25.134Z,54.40
2017-06-08T19:04:56.788Z,53.70
2017-06-08T19:07:28.316Z,53.90
2017-06-08T19:10:00.593Z,54.70
2017-06-08T19:12:32.894Z,55.50
2017-06-08T19:15:04.423Z,55.40
2017-06-08T19:17:36.113Z,55.20
2017-06-08T19:20:07.633Z,56.20
2017-06-08T19:22:39.148Z,56.50
2017-06-08T19:25:10.617Z,56.50
2017-06-08T19:27:42.409Z,57.60
2017-06-08T19:30:13.957Z,57.20
2017-06-08T19:32:45.702Z,57.40
2017-06-08T19:35:17.249Z,58.30
2017-06-08T19:37:49.535Z,60.50
2017-06-08T19:40:21.054Z,60.50
2017-06-08T19:42:52.794Z,59.40
2017-06-08T19:45:24.336Z,59.10
2017-06-08T19:47:55.949Z,59.10
2017-06-08T19:50:27.477Z,60.30
2017-06-08T19:52:59.823Z,59.70
2017-06-08T19:55:31.337Z,59.60
2017-06-08T19:58:02.881Z,59.90
2017-06-08T20:00:34.423Z,61.10
2017-06-08T20:03:06.139Z,61.30
2017-06-08T20:05:37.655Z,60.80
2017-06-08T20:08:09.253Z,60.70
2017-06-08T20:10:40.777Z,60.20
2017-06-08T20:13:12.371Z,60.50
2017-06-08T20:15:50.869Z,60.50
2017-06-08T20:18:22.437Z,61.00
2017-06-08T20:20:54.682Z,61.10
2017-06-08T20:23:26.255Z,60.90
2017-06-08T20:25:52.746Z,60.80
2017-06-08T20:28:24.246Z,61.80
2017-06-08T20:30:55.821Z,62.00
2017-06-08T20:33:27.389Z,62.30
2017-06-08T20:35:58.937Z,62.50
2017-06-08T20:38:30.445Z,62.80
2017-06-08T20:41:02.018Z,63.10
2017-06-08T20:43:34.346Z,62.40
2017-06-08T20:46:06.270Z,62.40
2017-06-08T20:48:37.822Z,62.40
2017-06-08T20:51:10.298Z,63.60
2017-06-08T20:53:42.577Z,63.60
2017-06-08T20:56:14.250Z,63.60
2017-06-08T20:58:45.782Z,63.50
2017-06-08T21:01:17.338Z,63.20
2017-06-08T21:03:48.924Z,63.40
2017-06-08T21:06:20.466Z,63.00
2017-06-08T21:08:52.005Z,63.50
2017-06-08T21:11:23.490Z,63.90
2017-06-08T21:13:55.017Z,64.40
2017-06-08T21:16:26.506Z,66.30
2017-06-08T21:18:58.049Z,66.00
2017-06-08T21:21:36.535Z,65.90
2017-06-08T21:24:08.105Z,65.90
2017-06-08T21:26:39.677Z,66.70
2017-06-08T21:29:11.236Z,66.60
2017-06-08T21:31:42.713Z,66.70
2017-06-08T21:34:15.024Z,68.30
2017-06-08T21:36:46.549Z,67.30
2017-06-08T21:39:18.105Z,66.90
2017-06-08T21:41:49.648Z,67.70
2017-06-08T21:44:21.942Z,67.60
2017-06-08T21:46:53.489Z,67.60
2017-06-08T21:49:25.024Z,67.80
2017-06-08T21:51:56.589Z,67.80
2017-06-08T21:54:28.176Z,68.30
2017-06-08T21:56:59.822Z,68.80
2017-06-08T21:59:31.312Z,69.60
2017-06-08T22:02:02.827Z,68.70
2017-06-08T22:04:44.893Z,69.20
2017-06-08T22:07:17.153Z,69.70
2017-06-08T22:09:48.624Z,69.60
2017-06-08T22:12:20.273Z,69.60
2017-06-08T22:14:51.785Z,69.60
2017-06-08T22:17:30.370Z,69.70
2017-06-08T22:20:01.906Z,69.30
2017-06-08T22:22:33.446Z,70.40
2017-06-08T22:25:04.969Z,70.50
2017-06-08T22:27:36.626Z,71.20
2017-06-08T22:30:08.151Z,70.70
2017-06-08T22:32:39.718Z,70.90
2017-06-08T22:35:11.181Z,71.70
2017-06-08T22:37:42.714Z,71.70
2017-06-08T22:40:14.238Z,70.70
2017-06-08T22:42:45.834Z,70.00
2017-06-08T22:45:17.296Z,69.90
2017-06-08T22:47:48.829Z,71.60
2017-06-08T22:50:20.369Z,71.50
2017-06-08T22:52:51.953Z,70.40
2017-06-08T22:55:23.439Z,70.20
2017-06-08T22:57:55.009Z,69.50
2017-06-08T23:00:26.529Z,71.00
2017-06-08T23:02:58.848Z,71.10
2017-06-08T23:05:30.336Z,71.00
2017-06-08T23:08:01.949Z,70.00
2017-06-08T23:10:33.455Z,69.70
2017-06-08T23:13:05.777Z,70.50
2017-06-08T23:15:37.265Z,70.40
2017-06-08T23:18:08.814Z,71.50
2017-06-08T23:20:40.314Z,71.60
2017-06-08T23:23:11.921Z,72.00
2017-06-08T23:25:43.426Z,72.00
2017-06-08T23:28:15.193Z,72.00
2017-06-08T23:30:46.713Z,70.60
2017-06-08T23:33:18.285Z,70.60
2017-06-08T23:35:49.765Z,70.80
2017-06-08T23:38:21.314Z,71.50
2017-06-08T23:40:52.821Z,70.40
2017-06-08T23:43:24.545Z,71.00
2017-06-08T23:45:56.054Z,70.70
2017-06-08T23:48:27.723Z,70.60
2017-06-08T23:50:59.281Z,70.10
2017-06-08T23:53:30.849Z,70.40
2017-06-08T23:56:02.325Z,69.90
2017-06-08T23:58:33.836Z,70.60
